Archival Weather

Chicago O'hare International

Chicago O'hare International, Illinois (KORD)

Report from: Saturday, May 14, 2022 10:51 AM CDT
Current time: Monday, May 23, 2022 3:12 AM CDT

Current weather
Weather history
Weather forecast

Temperature25.0°C (77.0°F)
Dew point15.6°C (60.1°F)
Winds 6 kts (3.1 m/s, 6.9 mph) North-Northeast (20°)
Visibility10 mi. (16.1 km)
Clouds Scattered clouds 12,000 ft. (3,658 m)
Ceiling: Broken clouds 17,000 ft. (5,182 m)
Broken clouds 25,000 ft. (7,620 m)
Altimeter29.94 in.Hg (1014 mB)
Relative humidity56 %
Density altitude1,381 ft. (421 m)
Sea-level pressure101.3 kPa (1013 mB, 29.92 in.Hg)
Remarks Automated weather observing station with precipitation discriminator
Flight conditions Visual Meteorological Conditions
Raw dataKORD 141551Z 02006KT 10SM SCT120 BKN170 BKN250 25/16 A2994 RMK AO2 SLP133 T02500156
An error has occurred. This application may no longer respond until reloaded. Reload 🗙